• Join FlightAware (Why Join?)
  • Login
  • US Flag 
01:33PM EDT


 

Airport Tracker/Info


-or-


 

Live Flight TrackerFlight Track Log ✈ SWA890 ✈ 04-Jan-2014 ✈ KLAS - KELP

Flight Track Log - Related Links

Times and Time Zones

All times are in EST time to prevent confusion due to time zone crossing. See the SWA890 flight status page for this flight to view local times or setup timezone preferences in your user account.

Time Position Orientation Groundspeed Altitude Reporting Facility
EST Latitude Longitude Course Direction KTS MPH feet Rate Location/Type
10:51PM 36.1047 -115.1508 34° Northeast 148 170 3,300  Level Los Angeles Center
10:52PM 36.1303 -115.1292 34° Northeast 199 229 4,800 2,520 Climbing Los Angeles Center
10:52PM 36.1286 -115.1300 202° Southwest 172 198 4,900 2,220 Climbing Los Angeles Center
10:53PM 36.1311 -115.0689 87° East 232 267 7,100 2,820 Climbing Los Angeles Center
10:54PM 36.1044 -114.9472 105° East 303 349 10,800 3,480 Climbing Los Angeles Center
10:55PM 36.0819 -114.8364 104° East 333 383 14,300 2,820 Climbing Los Angeles Center
10:56PM 36.0556 -114.7144 105° East 363 418 16,700 2,580 Climbing Los Angeles Center
10:57PM 36.0272 -114.5797 105° East 397 457 19,700 2,760 Climbing Los Angeles Center
10:58PM 36.0014 -114.4414 103° East 411 473 22,400 2,460 Climbing Los Angeles Center
10:59PM 35.9806 -114.2964 100° East 425 489 24,800 2,400 Climbing Los Angeles Center
11:00PM 35.9539 -114.1139 100° East 446 513 27,400 2,220 Climbing Los Angeles Center
11:01PM 35.9308 -113.9578 100° East 460 529 29,400 1,740 Climbing Los Angeles Center
11:02PM 35.9031 -113.7986 102° East 469 540 31,000 1,500 Climbing Los Angeles Center
11:03PM 35.8689 -113.6356 104° East 483 556 32,500 1,620 Climbing Los Angeles Center
11:04PM 35.8342 -113.4672 104° East 500 575 34,400 1,560 Climbing Los Angeles Center
11:05PM 35.8000 -113.3019 104° East 499 574 35,800 1,380 Climbing Los Angeles Center
11:06PM 35.7658 -113.1369 104° East 497 572 37,300 1,260 Climbing Los Angeles Center
11:07PM 35.7303 -112.9711 105° East 498 573 38,500 720 Climbing Los Angeles Center
11:08PM 35.6953 -112.8058 105° East 496 571 39,000 180 Climbing Los Angeles Center
11:09PM 35.6522 -112.6053 105° East 500 575 39,000  Level Los Angeles Center
11:10PM 35.6156 -112.4356 105° East 510 587 39,000  Level Los Angeles Center
11:12PM 35.5567 -112.2411 110° East 508 585 39,000  Level Los Angeles Center
11:13PM 35.4783 -112.0583 118° Southeast 506 582 39,000  Level Los Angeles Center
11:14PM 35.3833 -111.8878 124° Southeast 505 581 39,000  Level Los Angeles Center
11:15PM 35.3061 -111.7464 124° Southeast 501 577 39,000  Level Los Angeles Center
11:16PM 35.1978 -111.5564 125° Southeast 503 579 39,000  Level Albuquerque Center
11:17PM 35.1189 -111.4139 124° Southeast 504 580 39,000  Level Albuquerque Center
11:18PM 35.0397 -111.2706 124° Southeast 506 582 39,000  Level Albuquerque Center
11:19PM 34.9592 -111.1297 125° Southeast 506 582 39,000  Level Albuquerque Center
11:20PM 34.8794 -110.9856 124° Southeast 509 586 39,000  Level Albuquerque Center
11:21PM 34.7986 -110.8436 125° Southeast 510 587 39,000  Level Albuquerque Center
11:22PM 34.7183 -110.7000 124° Southeast 510 587 39,000  Level Albuquerque Center
11:23PM 34.6297 -110.5433 124° Southeast 508 585 39,000  Level Albuquerque Center
11:24PM 34.5506 -110.4064 125° Southeast 512 589 39,000  Level Albuquerque Center
11:25PM 34.4706 -110.2664 125° Southeast 520 598 39,000  Level Albuquerque Center
11:26PM 34.3797 -110.1092 125° Southeast 515 593 39,000  Level Albuquerque Center
11:27PM 34.3014 -109.9739 125° Southeast 514 592 39,000  Level Albuquerque Center
11:28PM 34.2228 -109.8383 125° Southeast 514 592 39,000  Level Albuquerque Center
11:29PM 34.1314 -109.6819 125° Southeast 512 589 39,000  Level Albuquerque Center
11:30PM 34.0531 -109.5486 125° Southeast 510 587 39,000  Level Albuquerque Center
11:31PM 33.9733 -109.4147 126° Southeast 511 588 39,000  Level Albuquerque Center
11:32PM 33.8922 -109.2769 125° Southeast 507 583 39,000  Level Albuquerque Center
11:33PM 33.8097 -109.1392 126° Southeast 507 583 39,000  Level Albuquerque Center
11:34PM 33.7281 -109.0033 126° Southeast 503 579 39,000  Level Albuquerque Center
11:35PM 33.6469 -108.8669 126° Southeast 500 575 39,000  Level Albuquerque Center
11:36PM 33.5644 -108.7292 126° Southeast 503 579 39,000  Level Albuquerque Center
11:37PM 33.4628 -108.5628 126° Southeast 510 587 39,000 -660 Level Albuquerque Center
11:38PM 33.3783 -108.4231 126° Southeast 514 592 37,700 -1,980 Descending Albuquerque Center
11:39PM 33.2908 -108.2817 126° Southeast 522 601 35,000 -2,340 Descending Albuquerque Center
11:41PM 33.2033 -108.1447 127° Southeast 519 597 33,000 -1,020 Descending Albuquerque Center
11:42PM 33.1094 -108.0269 134° Southeast 496 571 33,000  Level Albuquerque Center
11:43PM 33.0167 -107.9075 133° Southeast 490 564 33,000  Level Albuquerque Center
11:44PM 32.9364 -107.8089 134° Southeast 475 547 33,000 -420 Level Albuquerque Center
11:45PM 32.8506 -107.7017 134° Southeast 455 524 32,200 -2,220 Descending Albuquerque Center
11:46PM 32.7439 -107.5667 133° Southeast 465 535 28,600 -2,460 Descending Albuquerque Center
11:47PM 32.6642 -107.4658 133° Southeast 463 533 27,300 -1,800 Descending Albuquerque Center
11:48PM 32.5778 -107.3533 132° Southeast 461 531 25,000 -2,340 Descending Albuquerque Center
11:49PM 32.4992 -107.2269 126° Southeast 472 543 22,600 -2,760 Descending Albuquerque Center
11:49PM 32.4622 -107.1658 126° Southeast 486 559 21,300 -3,240 Descending Albuquerque Center
11:49PM 32.4564 -107.1572 129° Southeast 483 556 21,200 -1,920 Descending Albuquerque Center
11:50PM 32.4114 -107.0931 130° Southeast 464 534 20,000 -2,280 Descending Albuquerque Center
11:50PM 32.3781 -107.0381 126° Southeast 451 519 18,900 -2,220 Descending Albuquerque Center
11:51PM 32.3450 -106.9908 130° Southeast 453 521 17,800 -2,400 Descending Albuquerque Center
11:51PM 32.3006 -106.9239 128° Southeast 443 510 16,500 -2,700 Descending Albuquerque Center
11:52PM 32.2467 -106.8683 139° Southeast 431 496 15,100 -2,280 Descending Albuquerque Center
11:52PM 32.2108 -106.8378 144° Southeast 417 480 14,200 -2,280 Descending Albuquerque Center
11:53PM 32.1514 -106.7917 147° Southeast 416 479 12,800 -2,220 Descending Albuquerque Center
11:53PM 32.1144 -106.7636 147° Southeast 399 459 12,000 -1,920 Descending Albuquerque Center
11:54PM 32.0656 -106.7172 141° Southeast 393 452 10,900 -1,740 Descending Albuquerque Center
11:54PM 32.0517 -106.6739 111° Southeast 379 436 10,300 -1,020 Descending Albuquerque Center
11:55PM 32.0353 -106.6072 106° East 354 407 9,900 -900 Descending Albuquerque Center
11:55PM 32.0228 -106.5608 108° East 319 367 9,400 -840 Descending Albuquerque Center
11:56PM 32.0111 -106.5092 105° East 317 365 9,100 -540 Descending Albuquerque Center
11:56PM 31.9953 -106.4675 114° Southeast 288 331 8,900 -600 Descending Albuquerque Center
11:57PM 31.9775 -106.4283 118° Southeast 277 319 8,500 -1,020 Descending Albuquerque Center
11:57PM 31.9586 -106.3939 123° Southeast 244 281 7,900 -1,320 Descending Albuquerque Center
11:58PM 31.9428 -106.3600 119° Southeast 246 283 7,200 -1,200 Descending Albuquerque Center
11:58PM 31.9286 -106.3339 123° Southeast 198 228 6,700 -1,020 Descending Albuquerque Center
11:59PM 31.9114 -106.3086 129° Southeast 194 223 6,200 -900 Descending Albuquerque Center
11:59PM 31.8883 -106.3014 165° South 159 183 5,800 -1,020 Descending Albuquerque Center
12:00AM 31.8650 -106.3117 201° Southwest 146 168 5,200 -840 Descending Albuquerque Center
12:00AM 31.8542 -106.3250 226° Southwest 133 153 5,000 -540 Descending Albuquerque Center
12:01AM 31.8450 -106.3381 230° Southwest 136 157 4,700 -720 Descending Albuquerque Center
12:01AM 31.8306 -106.3583 230° Southwest 132 152 4,300 -840 Descending Albuquerque Center
12:02AM 31.8181 -106.3739 227° Southwest 134 154 3,900 -600 Descending Albuquerque Center
12:04AM 31.8072 -106.3764 90° East  Level Estimated
12:11AM 31.8072 -106.3764 90° East  Level Estimated
12:12AM 31.8072 -106.3764 90° East  Level Estimated
12:13AM 31.8072 -106.3764 90° East  Level Estimated
12:14AM 31.8072 -106.3764 90° East  Level Estimated